MSC Armonia — H8EW — position and weather

sailwx.info

Track history (hours):
 
Tides and Currents Weather Stations Pressure Air Temp Water Temp Dewpoint Dewpoint Depression Visibility Wind Speed Wind Dir Waves Ship Positions

MSC Armonia

Operator: Mediterranean Shipping Company

Last reported at 2019-Nov-19 02:00 UTC. Time now 2019-Dec-08 10:24 UTC.
Position N 25°46' W 080°04'.
Warning: this ship's position is 19 days out of date.

Length 275 m; draft 6.8 m.

Type: Ship. MMSI: 357281000.

Date/timePositionNaut miles runAvg speedWind from/ knotsBaromVisibWave heightAir tempDewpointWater temp
2019-Nov-19 02:00N 25°46' W 080°04'6 2.2
2019-Nov-18 23:30N 25°47' W 080°11'0 0.0
2019-Nov-18 22:30N 25°47' W 080°11'0 0.0
2019-Nov-18 22:00N 25°47' W 080°11'0 0.0
2019-Nov-18 21:30N 25°47' W 080°11'0 0.0
2019-Nov-18 20:30N 25°47' W 080°11'0 0.0
2019-Nov-18 20:00N 25°47' W 080°11'0 0.0
2019-Nov-18 19:30N 25°47' W 080°11'0 0.0
2019-Nov-18 16:00N 25°47' W 080°11'0 0.0
2019-Nov-18 15:27N 25°47' W 080°11'0 0.0
2019-Nov-18 13:00N 25°47' W 080°11'0 0.0
2019-Nov-18 12:27N 25°47' W 080°11'0 0.0
2019-Nov-18 11:00N 25°47' W 080°11'10 6.7
2019-Nov-18 09:30N 25°42' W 080°01'49413.7
2019-Nov-16 21:30N 20°31' W 086°57'0 0.0
2019-Nov-16 20:27N 20°31' W 086°57'0 0.0
2019-Nov-16 19:30N 20°31' W 086°57'0 0.0
2019-Nov-16 18:54N 20°31' W 086°57'0 0.0
2019-Nov-16 18:30N 20°31' W 086°57'0 0.0
2019-Nov-16 17:27N 20°31' W 086°57'0 0.0
2019-Nov-16 16:57N 20°31' W 086°57'0 0.0
2019-Nov-16 16:00N 20°31' W 086°57'0 0.0
2019-Nov-16 15:30N 20°31' W 086°57'  
2019-Nov-12 00:00N 25°40' W 079°54'16 6.5
2019-Nov-11 21:30N 25°47' W 080°10'0 0.0
2019-Nov-11 21:00N 25°47' W 080°10'0 0.0
2019-Nov-11 18:30N 25°47' W 080°10'0 0.0
2019-Nov-11 17:30N 25°47' W 080°10'0 0.0
2019-Nov-11 17:00N 25°47' W 080°10'0 0.0
2019-Nov-11 16:30N 25°47' W 080°10'0 0.0
2019-Nov-11 15:00N 25°47' W 080°10'0 0.0
2019-Nov-11 13:00N 25°47' W 080°10'2 1.6
2019-Nov-11 12:00N 25°46' W 080°09'12 7.7
2019-Nov-11 10:30N 25°38' W 080°00'  
Track history (hours):
 
Tides and Currents Weather Stations Pressure Air Temp Water Temp Dewpoint Dewpoint Depression Visibility Wind Speed Wind Dir Waves Ship Positions

MSC Armonia

Operator: Mediterranean Shipping Company

Last reported at 2019-Nov-19 02:00 UTC. Time now 2019-Dec-08 10:24 UTC.
Position N 25°46' W 080°04'.
Warning: this ship's position is 19 days out of date.

Length 275 m; draft 6.8 m.

Type: Ship. MMSI: 357281000.

Date/timePositionNaut miles runAvg speedWind from/ knotsBaromVisibWave heightAir tempDewpointWater temp
2019-Nov-19 02:00N 25°46' W 080°04'6 2.2
2019-Nov-18 23:30N 25°47' W 080°11'0 0.0
2019-Nov-18 22:30N 25°47' W 080°11'0 0.0
2019-Nov-18 22:00N 25°47' W 080°11'0 0.0
2019-Nov-18 21:30N 25°47' W 080°11'0 0.0
2019-Nov-18 20:30N 25°47' W 080°11'0 0.0
2019-Nov-18 20:00N 25°47' W 080°11'0 0.0
2019-Nov-18 19:30N 25°47' W 080°11'0 0.0
2019-Nov-18 16:00N 25°47' W 080°11'0 0.0
2019-Nov-18 15:27N 25°47' W 080°11'0 0.0
2019-Nov-18 13:00N 25°47' W 080°11'0 0.0
2019-Nov-18 12:27N 25°47' W 080°11'0 0.0
2019-Nov-18 11:00N 25°47' W 080°11'10 6.7
2019-Nov-18 09:30N 25°42' W 080°01'49413.7
2019-Nov-16 21:30N 20°31' W 086°57'0 0.0
2019-Nov-16 20:27N 20°31' W 086°57'0 0.0
2019-Nov-16 19:30N 20°31' W 086°57'0 0.0
2019-Nov-16 18:54N 20°31' W 086°57'0 0.0
2019-Nov-16 18:30N 20°31' W 086°57'0 0.0
2019-Nov-16 17:27N 20°31' W 086°57'0 0.0
2019-Nov-16 16:57N 20°31' W 086°57'0 0.0
2019-Nov-16 16:00N 20°31' W 086°57'0 0.0
2019-Nov-16 15:30N 20°31' W 086°57'  
2019-Nov-12 00:00N 25°40' W 079°54'16 6.5
2019-Nov-11 21:30N 25°47' W 080°10'0 0.0
2019-Nov-11 21:00N 25°47' W 080°10'0 0.0
2019-Nov-11 18:30N 25°47' W 080°10'0 0.0
2019-Nov-11 17:30N 25°47' W 080°10'0 0.0
2019-Nov-11 17:00N 25°47' W 080°10'0 0.0
2019-Nov-11 16:30N 25°47' W 080°10'0 0.0
2019-Nov-11 15:00N 25°47' W 080°10'0 0.0
2019-Nov-11 13:00N 25°47' W 080°10'2 1.6
2019-Nov-11 12:00N 25°46' W 080°09'12 7.7
2019-Nov-11 10:30N 25°38' W 080°00'  

Dump ship's entire track history